Sicilia — 5BGT4 — position and weather

sailwx.info

Track history (hours):
 
Tides and Currents Weather Stations Pressure Air Temp Water Temp Dewpoint Dewpoint Depression Visibility Wind Speed Wind Dir Waves Ship Positions

Sicilia

Last reported at 2018-Jun-23 13:59 UTC. Time now 2018-Jun-23 14:02 UTC.
Position N 38°54' E 001°27'.

Length 187 m; draft 5.9 m.

Type: Ship. MMSI: 209115000.

Date/timePositionNaut miles runAvg speedWind from/ knotsBaromVisibWave heightAir tempDewpointWater temp
2018-Jun-23 13:59N 38°54' E 001°27'0 0.0
2018-Jun-23 13:29N 38°54' E 001°27'0 0.0
2018-Jun-23 12:56N 38°54' E 001°27'0 0.0
2018-Jun-23 12:27N 38°54' E 001°27'0 0.0
2018-Jun-23 12:00N 38°54' E 001°27'0 0.0
2018-Jun-23 11:20N 38°54' E 001°27'0 0.0
2018-Jun-23 10:51N 38°54' E 001°27'0 0.0
2018-Jun-23 10:30N 38°54' E 001°27'0 0.0
2018-Jun-23 09:57N 38°54' E 001°27'0 0.0
2018-Jun-23 09:30N 38°54' E 001°27'0 0.0
2018-Jun-23 09:00N 38°54' E 001°27'0 0.0
2018-Jun-23 08:27N 38°54' E 001°27'0 0.0
2018-Jun-23 07:59N 38°54' E 001°27'0 0.0
2018-Jun-23 07:30N 38°54' E 001°27'0 0.0
2018-Jun-23 07:00N 38°54' E 001°27'0 0.0
2018-Jun-23 06:30N 38°54' E 001°27'0 0.0
2018-Jun-23 06:01N 38°54' E 001°27'0 0.0
2018-Jun-23 05:31N 38°54' E 001°27'0 0.0
2018-Jun-23 04:52N 38°54' E 001°27'0 0.1
2018-Jun-23 04:28N 38°54' E 001°27'3 6.2
2018-Jun-23 04:00N 38°54' E 001°31'12419.4
2018-Jun-22 21:37N 40°55' E 002°06'220.7
2018-Jun-22 21:31N 40°58' E 002°06'1020.4
2018-Jun-22 21:01N 41°08' E 002°09'1020.3
2018-Jun-22 20:31N 41°18' E 002°10'3 5.8
2018-Jun-22 20:00N 41°21' E 002°09'0 0.0
2018-Jun-22 19:30N 41°21' E 002°09'0 0.0
2018-Jun-22 19:00N 41°21' E 002°09'0 0.0
2018-Jun-22 18:30N 41°21' E 002°09'0 0.0
2018-Jun-22 18:00N 41°21' E 002°09'0 0.0
2018-Jun-22 17:30N 41°21' E 002°09'0 0.0
2018-Jun-22 16:59N 41°21' E 002°09'0 0.0
2018-Jun-22 16:30N 41°21' E 002°09'2 4.2
2018-Jun-22 16:00N 41°19' E 002°10'816.9
2018-Jun-22 15:30N 41°10' E 002°10'1019.9
2018-Jun-22 15:00N 41°00' E 002°08'1019.5
2018-Jun-22 14:30N 40°51' E 002°05'1019.7
2018-Jun-22 14:00N 40°41' E 002°03'1019.9
2018-Jun-22 13:29N 40°31' E 002°01'1019.8
2018-Jun-22 13:00N 40°22' E 001°59'1019.8
2018-Jun-22 12:30N 40°12' E 001°56'1020.0
2018-Jun-22 12:00N 40°02' E 001°54'1020.0
2018-Jun-22 11:29N 39°52' E 001°52'4519.5
2018-Jun-22 09:12N 39°08' E 001°43'419.6
2018-Jun-22 08:59N 39°03' E 001°43'1019.5
2018-Jun-22 08:28N 38°56' E 001°34'612.5
2018-Jun-22 08:00N 38°54' E 001°27'0 0.0
2018-Jun-22 07:30N 38°54' E 001°27'0 0.0
2018-Jun-22 07:00N 38°54' E 001°27'0 0.0
2018-Jun-22 06:30N 38°54' E 001°27'0 0.0
2018-Jun-22 06:00N 38°54' E 001°27'0 0.0
2018-Jun-22 05:30N 38°54' E 001°27'0 0.0
2018-Jun-22 05:00N 38°54' E 001°27'0 0.0
2018-Jun-22 04:29N 38°54' E 001°27'2 3.9
2018-Jun-22 04:00N 38°54' E 001°29'1018.6
2018-Jun-22 03:26N 38°60' E 001°40'919.2
2018-Jun-22 02:58N 39°09' E 001°43'1219.3
2018-Jun-22 02:20N 39°21' E 001°46'719.3
2018-Jun-22 02:00N 39°27' E 001°47'1019.7
2018-Jun-22 01:30N 39°37' E 001°49'1019.8
2018-Jun-22 01:00N 39°47' E 001°51'1020.0
2018-Jun-22 00:29N 39°57' E 001°53'1020.2
2018-Jun-22 00:00N 40°06' E 001°55'1120.5
2018-Jun-21 23:30N 40°17' E 001°58'1020.4
2018-Jun-21 23:00N 40°27' E 002°00'1020.5
2018-Jun-21 22:30N 40°37' E 002°02'1020.7
2018-Jun-21 22:00N 40°47' E 002°04'1020.9
2018-Jun-21 21:30N 40°57' E 002°06'1020.9
2018-Jun-21 21:00N 41°07' E 002°09'1020.5
2018-Jun-21 20:30N 41°18' E 002°10'3 6.7
2018-Jun-21 20:00N 41°21' E 002°10'0 0.0
2018-Jun-21 19:30N 41°21' E 002°10'0 0.0
2018-Jun-21 19:00N 41°21' E 002°10'0 0.0
2018-Jun-21 18:30N 41°21' E 002°10'0 0.0
2018-Jun-21 18:00N 41°21' E 002°10'0 0.0
2018-Jun-21 17:30N 41°21' E 002°10'0 0.0
2018-Jun-21 17:00N 41°21' E 002°10'0 0.0
2018-Jun-21 16:30N 41°21' E 002°10'2 4.3
2018-Jun-21 16:00N 41°19' E 002°10'611.9
2018-Jun-21 15:30N 41°13' E 002°10'1121.2
2018-Jun-21 15:00N 41°02' E 002°08'1020.6
2018-Jun-21 14:30N 40°52' E 002°06'1020.7
2018-Jun-21 14:00N 40°42' E 002°03'1121.1
2018-Jun-21 13:30N 40°31' E 002°01'1121.0
2018-Jun-21 13:00N 40°21' E 001°59'1020.9
2018-Jun-21 12:30N 40°11' E 001°57'1621.2
2018-Jun-21 11:45N 39°55' E 001°53'621.1
2018-Jun-21 11:29N 39°50' E 001°52'1021.0
2018-Jun-21 10:59N 39°39' E 001°49'1021.2
2018-Jun-21 10:30N 39°29' E 001°47'1121.4
2018-Jun-21 09:59N 39°18' E 001°45'1021.4
2018-Jun-21 09:30N 39°08' E 001°43'1020.5
2018-Jun-21 09:00N 38°58' E 001°39'1019.4
2018-Jun-21 08:29N 38°54' E 001°27'0 0.7
2018-Jun-21 07:59N 38°54' E 001°27'0 0.0
2018-Jun-21 07:30N 38°54' E 001°27'0 0.0
2018-Jun-21 07:00N 38°54' E 001°27'0 0.0
2018-Jun-21 06:28N 38°54' E 001°27'0 0.0
2018-Jun-21 06:00N 38°54' E 001°27'0 0.0
2018-Jun-21 05:30N 38°54' E 001°27'0 0.0
2018-Jun-21 05:00N 38°54' E 001°27'0 0.5
2018-Jun-21 04:30N 38°54' E 001°27'3 6.3
2018-Jun-21 04:00N 38°54' E 001°31'1020.0
2018-Jun-21 03:30N 39°00' E 001°41'1421.1
2018-Jun-21 02:50N 39°14' E 001°44'1121.4
2018-Jun-21 02:20N 39°25' E 001°46'921.7
2018-Jun-21 01:56N 39°33' E 001°48'1021.7
2018-Jun-21 01:29N 39°43' E 001°50'1121.2
2018-Jun-21 00:58N 39°54' E 001°52'1020.8
2018-Jun-21 00:30N 40°03' E 001°54'1120.7
2018-Jun-20 23:58N 40°14' E 001°57'1020.8
2018-Jun-20 23:30N 40°24' E 001°59'1021.0
2018-Jun-20 23:00N 40°34' E 002°01'1021.1
2018-Jun-20 22:30N 40°45' E 002°03'1121.3
2018-Jun-20 22:00N 40°55' E 002°05'1121.4
2018-Jun-20 21:30N 41°06' E 002°08'1121.2
2018-Jun-20 21:00N 41°16' E 002°10'5 9.3
2018-Jun-20 20:31N 41°21' E 002°10'0 0.9
2018-Jun-20 20:00N 41°21' E 002°09'0 0.0
2018-Jun-20 19:30N 41°21' E 002°09'0 0.0
2018-Jun-20 19:00N 41°21' E 002°09'0 0.0
2018-Jun-20 18:29N 41°21' E 002°09'0 0.0
2018-Jun-20 18:00N 41°21' E 002°09'0 0.0
2018-Jun-20 17:30N 41°21' E 002°09'0 0.0
2018-Jun-20 17:00N 41°21' E 002°09'0 0.6
2018-Jun-20 16:30N 41°21' E 002°10'4 8.8
2018-Jun-20 16:00N 41°16' E 002°11'1121.4
2018-Jun-20 15:30N 41°06' E 002°09'1120.7
2018-Jun-20 15:00N 40°56' E 002°06'1021.3
2018-Jun-20 14:30N 40°45' E 002°04'1121.1
2018-Jun-20 14:00N 40°35' E 002°02'1021.0
2018-Jun-20 13:30N 40°25' E 001°60'1220.9
2018-Jun-20 12:56N 40°13' E 001°57'6617.6
2018-Jun-20 09:10N 39°07' E 001°42'620.9
2018-Jun-20 08:51N 39°01' E 001°41'1317.8
2018-Jun-20 08:08N 38°54' E 001°27'0 0.7
2018-Jun-20 07:57N 38°54' E 001°27'0 0.0
2018-Jun-20 07:27N 38°54' E 001°27'0 0.0
2018-Jun-20 06:47N 38°54' E 001°27'0 0.0
2018-Jun-20 06:16N 38°54' E 001°27'0 0.0
2018-Jun-20 05:57N 38°54' E 001°27'0 0.0
2018-Jun-20 05:31N 38°54' E 001°27'0 0.0
2018-Jun-20 05:00N 38°54' E 001°27'0 0.0
2018-Jun-20 04:26N 38°54' E 001°27'1 1.9
2018-Jun-20 03:55N 38°54' E 001°28'9120.2
2018-Jun-19 23:25N 40°22' E 001°58'921.9
2018-Jun-19 23:00N 40°30' E 002°01'1121.9
2018-Jun-19 22:30N 40°41' E 002°03'1422.1
2018-Jun-19 21:53N 40°55' E 002°05'821.9
2018-Jun-19 21:30N 41°03' E 002°07'1121.7
2018-Jun-19 21:00N 41°14' E 002°10'713.8
2018-Jun-19 20:30N 41°21' E 002°09'0 0.4
2018-Jun-19 20:00N 41°21' E 002°09'0 0.0
2018-Jun-19 19:30N 41°21' E 002°09'0 0.0
2018-Jun-19 19:00N 41°21' E 002°09'0 0.0
2018-Jun-19 18:30N 41°21' E 002°09'0 0.0
2018-Jun-19 18:00N 41°21' E 002°09'0 0.0
2018-Jun-19 17:30N 41°21' E 002°09'0 0.0
2018-Jun-19 17:00N 41°21' E 002°09'0 0.0
2018-Jun-19 16:30N 41°21' E 002°09'2 4.0
2018-Jun-19 16:00N 41°19' E 002°10'816.4
2018-Jun-19 15:30N 41°11' E 002°10'1121.1
2018-Jun-19 15:00N 41°00' E 002°07'1020.7
2018-Jun-19 14:30N 40°50' E 002°05'1020.7
2018-Jun-19 14:00N 40°40' E 002°03'10219.2
2018-Jun-19 08:41N 38°59' E 001°40'421.0
2018-Jun-19 08:29N 38°57' E 001°36'713.5
2018-Jun-19 07:58N 38°54' E 001°27'0 0.0
2018-Jun-19 07:28N 38°54' E 001°27'0 0.0
2018-Jun-19 07:00N 38°54' E 001°27'0 0.0
2018-Jun-19 06:30N 38°54' E 001°27'0 0.0
2018-Jun-19 06:00N 38°54' E 001°27'0 0.0
2018-Jun-19 05:28N 38°54' E 001°27'0 0.0
2018-Jun-19 04:59N 38°54' E 001°27'0 0.0
2018-Jun-19 04:27N 38°54' E 001°27'1 2.0
2018-Jun-19 03:56N 38°54' E 001°28'919.3
2018-Jun-19 03:29N 38°58' E 001°38'8019.7
2018-Jun-18 23:24N 40°17' E 001°58'820.6
2018-Jun-18 23:00N 40°25' E 001°60'1020.7
2018-Jun-18 22:30N 40°35' E 002°02'1020.8
2018-Jun-18 22:00N 40°45' E 002°04'1020.6
2018-Jun-18 21:30N 40°56' E 002°06'1020.5
2018-Jun-18 21:01N 41°06' E 002°08'1020.2
2018-Jun-18 20:31N 41°16' E 002°10'510.2
2018-Jun-18 20:01N 41°21' E 002°10'0 0.0
2018-Jun-18 19:31N 41°21' E 002°10'0 0.0
2018-Jun-18 19:01N 41°21' E 002°10'0 0.0
2018-Jun-18 18:31N 41°21' E 002°10'0 0.0
2018-Jun-18 18:01N 41°21' E 002°10'0 0.0
2018-Jun-18 17:30N 41°21' E 002°10'0 0.0
2018-Jun-18 17:01N 41°21' E 002°10'0 0.0
2018-Jun-18 16:31N 41°21' E 002°10'0 0.0
2018-Jun-18 16:01N 41°21' E 002°10'0 0.0
2018-Jun-18 15:31N 41°21' E 002°10'0 0.0
2018-Jun-18 15:01N 41°21' E 002°10'0 0.0
2018-Jun-18 14:31N 41°21' E 002°10'0 0.0
2018-Jun-18 14:01N 41°21' E 002°10'0 0.0
2018-Jun-18 13:31N 41°21' E 002°10'0 0.0
2018-Jun-18 13:01N 41°21' E 002°10'0 0.0
2018-Jun-18 12:30N 41°21' E 002°10'0 0.0
2018-Jun-18 12:01N 41°21' E 002°10'0 0.0
2018-Jun-18 11:31N 41°21' E 002°10'0 0.0
2018-Jun-18 11:00N 41°21' E 002°10'0 0.0
2018-Jun-18 10:30N 41°21' E 002°10'0 0.0
2018-Jun-18 10:00N 41°21' E 002°10'0 0.0
2018-Jun-18 09:30N 41°21' E 002°10'0 0.0
2018-Jun-18 09:00N 41°21' E 002°10'0 0.0
2018-Jun-18 08:30N 41°21' E 002°10'0 0.0
2018-Jun-18 08:01N 41°21' E 002°10'0 0.0
2018-Jun-18 07:30N 41°21' E 002°10'0 0.0
2018-Jun-18 07:01N 41°21' E 002°10'0 0.0
2018-Jun-18 06:31N 41°21' E 002°10'0 0.0
2018-Jun-18 06:00N 41°21' E 002°10'0 0.0
2018-Jun-18 05:31N 41°21' E 002°10'0 0.0
2018-Jun-18 05:01N 41°21' E 002°10'2 3.5
2018-Jun-18 04:30N 41°19' E 002°10'4 8.4
2018-Jun-18 04:01N 41°15' E 002°11'1019.2
2018-Jun-18 03:30N 41°05' E 002°09'3020.0
2018-Jun-18 02:00N 40°36' E 002°02'6119.9
2018-Jun-17 22:56N 39°35' E 001°49'819.0
2018-Jun-17 22:30N 39°28' E 001°47'3219.3
2018-Jun-17 20:52N 38°57' E 001°36'817.7
2018-Jun-17 20:26N 38°54' E 001°27'0 0.6
2018-Jun-17 19:59N 38°54' E 001°27'0 0.0
2018-Jun-17 19:30N 38°54' E 001°27'0 0.0
2018-Jun-17 19:00N 38°54' E 001°27'0 0.0
2018-Jun-17 18:29N 38°54' E 001°27'0 0.0
2018-Jun-17 18:00N 38°54' E 001°27'0 0.0
2018-Jun-17 17:30N 38°54' E 001°27'0 0.0
2018-Jun-17 17:00N 38°54' E 001°27'0 0.0
2018-Jun-17 16:30N 38°54' E 001°27'0 0.0
2018-Jun-17 16:00N 38°54' E 001°27'0 0.0
2018-Jun-17 15:29N 38°54' E 001°27'0 0.0
2018-Jun-17 15:00N 38°54' E 001°27'0 0.0
2018-Jun-17 14:30N 38°54' E 001°27'0 0.0
2018-Jun-17 13:59N 38°54' E 001°27'0 0.0
2018-Jun-17 10:26N 38°54' E 001°27'0 0.0
2018-Jun-17 09:57N 38°54' E 001°27'0 0.0
2018-Jun-17 09:27N 38°54' E 001°27'0 0.0
2018-Jun-17 09:00N 38°54' E 001°27'0 0.0
2018-Jun-17 08:30N 38°54' E 001°27'0 0.0
2018-Jun-17 08:00N 38°54' E 001°27'0 0.0
2018-Jun-17 07:30N 38°54' E 001°27'0 0.0
2018-Jun-17 07:00N 38°54' E 001°27'0 0.0
2018-Jun-17 06:30N 38°54' E 001°27'0 0.0
2018-Jun-17 06:00N 38°54' E 001°27'0 0.0
2018-Jun-17 05:30N 38°54' E 001°27'0 0.0
2018-Jun-17 05:00N 38°54' E 001°27'0 0.0
2018-Jun-17 04:30N 38°54' E 001°27'0 0.0
2018-Jun-17 04:00N 38°54' E 001°27'0 0.0
2018-Jun-17 03:30N 38°54' E 001°27'0 0.0
2018-Jun-17 02:59N 38°54' E 001°27'0 0.0
2018-Jun-17 02:30N 38°54' E 001°27'0 0.0
2018-Jun-17 02:00N 38°54' E 001°27'0 0.0
2018-Jun-17 01:29N 38°54' E 001°27'0 0.0
2018-Jun-17 01:00N 38°54' E 001°27'0 0.0
2018-Jun-17 00:30N 38°54' E 001°27'0 0.0
2018-Jun-16 23:59N 38°54' E 001°27'0 0.0
2018-Jun-16 23:30N 38°54' E 001°27'0 0.0
2018-Jun-16 23:00N 38°54' E 001°27'0 0.0
2018-Jun-16 22:29N 38°54' E 001°27'0 0.0
2018-Jun-16 21:35N 38°54' E 001°27'0 0.0
2018-Jun-16 21:30N 38°54' E 001°27'0 0.0
2018-Jun-16 21:00N 38°54' E 001°27'0 0.0
2018-Jun-16 20:29N 38°54' E 001°27'0 0.0
2018-Jun-16 19:58N 38°54' E 001°27'0 0.0
2018-Jun-16 19:30N 38°54' E 001°27'0 0.0
2018-Jun-16 19:00N 38°54' E 001°27'0 0.0
2018-Jun-16 18:30N 38°54' E 001°27'0 0.0
2018-Jun-16 18:00N 38°54' E 001°27'0 0.0
2018-Jun-16 17:28N 38°54' E 001°27'0 0.0
2018-Jun-16 17:00N 38°54' E 001°27'0 0.0
2018-Jun-16 16:30N 38°54' E 001°27'0 0.0
2018-Jun-16 16:00N 38°54' E 001°27'0 0.0
2018-Jun-16 15:30N 38°54' E 001°27'0 0.0
2018-Jun-16 15:00N 38°54' E 001°27'0 0.0
2018-Jun-16 14:25N 38°54' E 001°27'0 0.0
2018-Jun-16 14:00N 38°54' E 001°27'0 0.0
2018-Jun-16 13:30N 38°54' E 001°27'0 0.0
2018-Jun-16 12:59N 38°54' E 001°27'0 0.0
2018-Jun-16 12:30N 38°54' E 001°27'0 0.0
2018-Jun-16 11:59N 38°54' E 001°27'0 0.0
2018-Jun-16 11:30N 38°54' E 001°27'0 0.0
2018-Jun-16 11:00N 38°54' E 001°27'0 0.0
2018-Jun-16 10:30N 38°54' E 001°27'0 0.0
2018-Jun-16 10:00N 38°54' E 001°27'0 0.0
2018-Jun-16 09:30N 38°54' E 001°27'0 0.0
2018-Jun-16 09:00N 38°54' E 001°27'0 0.0
2018-Jun-16 08:30N 38°54' E 001°27'0 0.0
2018-Jun-16 07:59N 38°54' E 001°27'0 0.0
2018-Jun-16 07:30N 38°54' E 001°27'0 0.0
2018-Jun-16 06:59N 38°54' E 001°27'0 0.0
2018-Jun-16 06:30N 38°54' E 001°27'0 0.0
2018-Jun-16 06:00N 38°54' E 001°27'0 0.0
2018-Jun-16 05:30N 38°54' E 001°27'0 0.0
2018-Jun-16 05:00N 38°54' E 001°27'0 0.0
2018-Jun-16 04:30N 38°54' E 001°27'1 1.4
2018-Jun-16 04:00N 38°54' E 001°27'1019.8
2018-Jun-16 03:30N 38°59' E 001°38'1120.0
2018-Jun-16 02:58N 39°09' E 001°43'1020.9
2018-Jun-16 02:30N 39°18' E 001°44'1020.6
2018-Jun-16 02:00N 39°29' E 001°47'1121.0
2018-Jun-16 01:30N 39°39' E 001°49'5920.7
2018-Jun-15 22:37N 40°38' E 001°59'720.8
2018-Jun-15 22:16N 40°45' E 002°01'720.9
2018-Jun-15 21:55N 40°53' E 002°03'921.3
2018-Jun-15 21:30N 41°01' E 002°06'1020.8
2018-Jun-15 21:00N 41°11' E 002°09'918.3
2018-Jun-15 20:31N 41°20' E 002°10'1 1.5
2018-Jun-15 20:01N 41°21' E 002°09'0 0.0
2018-Jun-15 19:30N 41°21' E 002°09'0 0.0
2018-Jun-15 19:00N 41°21' E 002°09'0 0.0
2018-Jun-15 18:31N 41°21' E 002°09'0 0.0
2018-Jun-15 17:59N 41°21' E 002°09'0 0.0
2018-Jun-15 17:31N 41°21' E 002°09'0 0.0
2018-Jun-15 17:01N 41°21' E 002°09'0 0.0
2018-Jun-15 16:31N 41°21' E 002°09'0 0.2
2018-Jun-15 16:01N 41°20' E 002°09'4 7.0
2018-Jun-15 15:30N 41°17' E 002°11'1020.4
2018-Jun-15 15:00N 41°07' E 002°09'1020.2
2018-Jun-15 14:30N 40°57' E 002°07'1020.0
2018-Jun-15 14:00N 40°47' E 002°05'1120.2
2018-Jun-15 13:28N 40°37' E 002°02'1020.6
2018-Jun-15 13:00N 40°27' E 001°60'5120.1
2018-Jun-15 10:27N 39°36' E 001°49'920.7
2018-Jun-15 10:00N 39°27' E 001°47'1121.9
2018-Jun-15 09:29N 39°16' E 001°45'1422.3
2018-Jun-15 08:52N 39°02' E 001°42'14 4.9
2018-Jun-15 06:01N 38°54' E 001°27'0 0.1
2018-Jun-15 06:00N 38°54' E 001°27'0 0.0
2018-Jun-15 05:30N 38°54' E 001°27'0 0.0
2018-Jun-15 05:00N 38°54' E 001°27'0 0.0
2018-Jun-15 04:30N 38°54' E 001°27'1 1.4
2018-Jun-15 04:00N 38°54' E 001°28'9718.8
2018-Jun-14 22:52N 40°27' E 002°00'720.1
2018-Jun-14 22:30N 40°34' E 002°01'1319.8
2018-Jun-14 21:49N 40°48' E 002°04'820.1
2018-Jun-14 21:26N 40°55' E 002°05'920.0
2018-Jun-14 20:59N 41°04' E 002°07'919.5
2018-Jun-14 20:30N 41°14' E 002°10'714.7
2018-Jun-14 20:01N 41°21' E 002°10'0 0.1
2018-Jun-14 19:31N 41°21' E 002°10'0 0.0
2018-Jun-14 19:01N 41°21' E 002°10'0 0.0
2018-Jun-14 18:30N 41°21' E 002°10'0 0.0
2018-Jun-14 18:01N 41°21' E 002°10'0 0.0
2018-Jun-14 17:30N 41°21' E 002°10'0 0.0
2018-Jun-14 17:01N 41°21' E 002°10'0 0.0
2018-Jun-14 16:31N 41°21' E 002°10'2 4.4
2018-Jun-14 16:00N 41°19' E 002°10'713.0
2018-Jun-14 15:30N 41°12' E 002°10'1020.8
2018-Jun-14 15:00N 41°02' E 002°08'11919.7
2018-Jun-14 08:58N 39°04' E 001°42'918.4
2018-Jun-14 08:30N 38°57' E 001°36'814.1
2018-Jun-14 07:57N 38°54' E 001°27'0 0.0
2018-Jun-14 07:30N 38°54' E 001°27'0 0.0
2018-Jun-14 06:57N 38°54' E 001°27'0 0.0
2018-Jun-14 06:30N 38°54' E 001°27'0 0.0
2018-Jun-14 04:15N 38°54' E 001°27'1 3.0
2018-Jun-14 03:59N 38°54' E 001°28'918.0
2018-Jun-14 03:30N 38°58' E 001°37'10720.4
2018-Jun-13 22:16N 40°43' E 002°02'620.7
2018-Jun-13 22:00N 40°48' E 002°03'1020.5
2018-Jun-13 21:30N 40°58' E 002°04'1020.2
2018-Jun-13 21:00N 41°08' E 002°07'1020.1
2018-Jun-13 20:30N 41°18' E 002°10'3 5.7
2018-Jun-13 20:00N 41°21' E 002°09'0 0.0
2018-Jun-13 19:30N 41°21' E 002°09'0 0.0
2018-Jun-13 19:00N 41°21' E 002°09'0 0.0
2018-Jun-13 18:30N 41°21' E 002°09'0 0.0
2018-Jun-13 18:00N 41°21' E 002°09'0 0.0
2018-Jun-13 17:30N 41°21' E 002°09'0 0.0
2018-Jun-13 17:00N 41°21' E 002°09'0 0.0
2018-Jun-13 16:30N 41°21' E 002°09'1 1.5
2018-Jun-13 16:00N 41°20' E 002°10'713.1
2018-Jun-13 15:30N 41°14' E 002°11'1020.7
2018-Jun-13 15:00N 41°03' E 002°08'1020.4
2018-Jun-13 14:30N 40°53' E 002°06'  
Track history (hours):
 
Tides and Currents Weather Stations Pressure Air Temp Water Temp Dewpoint Dewpoint Depression Visibility Wind Speed Wind Dir Waves Ship Positions

Sicilia

Last reported at 2018-Jun-23 13:59 UTC. Time now 2018-Jun-23 14:02 UTC.
Position N 38°54' E 001°27'.

Length 187 m; draft 5.9 m.

Type: Ship. MMSI: 209115000.

Date/timePositionNaut miles runAvg speedWind from/ knotsBaromVisibWave heightAir tempDewpointWater temp
2018-Jun-23 13:59N 38°54' E 001°27'0 0.0
2018-Jun-23 13:29N 38°54' E 001°27'0 0.0
2018-Jun-23 12:56N 38°54' E 001°27'0 0.0
2018-Jun-23 12:27N 38°54' E 001°27'0 0.0
2018-Jun-23 12:00N 38°54' E 001°27'0 0.0
2018-Jun-23 11:20N 38°54' E 001°27'0 0.0
2018-Jun-23 10:51N 38°54' E 001°27'0 0.0
2018-Jun-23 10:30N 38°54' E 001°27'0 0.0
2018-Jun-23 09:57N 38°54' E 001°27'0 0.0
2018-Jun-23 09:30N 38°54' E 001°27'0 0.0
2018-Jun-23 09:00N 38°54' E 001°27'0 0.0
2018-Jun-23 08:27N 38°54' E 001°27'0 0.0
2018-Jun-23 07:59N 38°54' E 001°27'0 0.0
2018-Jun-23 07:30N 38°54' E 001°27'0 0.0
2018-Jun-23 07:00N 38°54' E 001°27'0 0.0
2018-Jun-23 06:30N 38°54' E 001°27'0 0.0
2018-Jun-23 06:01N 38°54' E 001°27'0 0.0
2018-Jun-23 05:31N 38°54' E 001°27'0 0.0
2018-Jun-23 04:52N 38°54' E 001°27'0 0.1
2018-Jun-23 04:28N 38°54' E 001°27'3 6.2
2018-Jun-23 04:00N 38°54' E 001°31'12419.4
2018-Jun-22 21:37N 40°55' E 002°06'220.7
2018-Jun-22 21:31N 40°58' E 002°06'1020.4
2018-Jun-22 21:01N 41°08' E 002°09'1020.3
2018-Jun-22 20:31N 41°18' E 002°10'3 5.8
2018-Jun-22 20:00N 41°21' E 002°09'0 0.0
2018-Jun-22 19:30N 41°21' E 002°09'0 0.0
2018-Jun-22 19:00N 41°21' E 002°09'0 0.0
2018-Jun-22 18:30N 41°21' E 002°09'0 0.0
2018-Jun-22 18:00N 41°21' E 002°09'0 0.0
2018-Jun-22 17:30N 41°21' E 002°09'0 0.0
2018-Jun-22 16:59N 41°21' E 002°09'0 0.0
2018-Jun-22 16:30N 41°21' E 002°09'2 4.2
2018-Jun-22 16:00N 41°19' E 002°10'816.9
2018-Jun-22 15:30N 41°10' E 002°10'1019.9
2018-Jun-22 15:00N 41°00' E 002°08'1019.5
2018-Jun-22 14:30N 40°51' E 002°05'1019.7
2018-Jun-22 14:00N 40°41' E 002°03'1019.9
2018-Jun-22 13:29N 40°31' E 002°01'1019.8
2018-Jun-22 13:00N 40°22' E 001°59'1019.8
2018-Jun-22 12:30N 40°12' E 001°56'1020.0
2018-Jun-22 12:00N 40°02' E 001°54'1020.0
2018-Jun-22 11:29N 39°52' E 001°52'4519.5
2018-Jun-22 09:12N 39°08' E 001°43'419.6
2018-Jun-22 08:59N 39°03' E 001°43'1019.5
2018-Jun-22 08:28N 38°56' E 001°34'612.5
2018-Jun-22 08:00N 38°54' E 001°27'0 0.0
2018-Jun-22 07:30N 38°54' E 001°27'0 0.0
2018-Jun-22 07:00N 38°54' E 001°27'0 0.0
2018-Jun-22 06:30N 38°54' E 001°27'0 0.0
2018-Jun-22 06:00N 38°54' E 001°27'0 0.0
2018-Jun-22 05:30N 38°54' E 001°27'0 0.0
2018-Jun-22 05:00N 38°54' E 001°27'0 0.0
2018-Jun-22 04:29N 38°54' E 001°27'2 3.9
2018-Jun-22 04:00N 38°54' E 001°29'1018.6
2018-Jun-22 03:26N 38°60' E 001°40'919.2
2018-Jun-22 02:58N 39°09' E 001°43'1219.3
2018-Jun-22 02:20N 39°21' E 001°46'719.3
2018-Jun-22 02:00N 39°27' E 001°47'1019.7
2018-Jun-22 01:30N 39°37' E 001°49'1019.8
2018-Jun-22 01:00N 39°47' E 001°51'1020.0
2018-Jun-22 00:29N 39°57' E 001°53'1020.2
2018-Jun-22 00:00N 40°06' E 001°55'1120.5
2018-Jun-21 23:30N 40°17' E 001°58'1020.4
2018-Jun-21 23:00N 40°27' E 002°00'1020.5
2018-Jun-21 22:30N 40°37' E 002°02'1020.7
2018-Jun-21 22:00N 40°47' E 002°04'1020.9
2018-Jun-21 21:30N 40°57' E 002°06'1020.9
2018-Jun-21 21:00N 41°07' E 002°09'1020.5
2018-Jun-21 20:30N 41°18' E 002°10'3 6.7
2018-Jun-21 20:00N 41°21' E 002°10'0 0.0
2018-Jun-21 19:30N 41°21' E 002°10'0 0.0
2018-Jun-21 19:00N 41°21' E 002°10'0 0.0
2018-Jun-21 18:30N 41°21' E 002°10'0 0.0
2018-Jun-21 18:00N 41°21' E 002°10'0 0.0
2018-Jun-21 17:30N 41°21' E 002°10'0 0.0
2018-Jun-21 17:00N 41°21' E 002°10'0 0.0
2018-Jun-21 16:30N 41°21' E 002°10'2 4.3
2018-Jun-21 16:00N 41°19' E 002°10'611.9
2018-Jun-21 15:30N 41°13' E 002°10'1121.2
2018-Jun-21 15:00N 41°02' E 002°08'1020.6
2018-Jun-21 14:30N 40°52' E 002°06'1020.7
2018-Jun-21 14:00N 40°42' E 002°03'1121.1
2018-Jun-21 13:30N 40°31' E 002°01'1121.0
2018-Jun-21 13:00N 40°21' E 001°59'1020.9
2018-Jun-21 12:30N 40°11' E 001°57'1621.2
2018-Jun-21 11:45N 39°55' E 001°53'621.1
2018-Jun-21 11:29N 39°50' E 001°52'1021.0
2018-Jun-21 10:59N 39°39' E 001°49'1021.2
2018-Jun-21 10:30N 39°29' E 001°47'1121.4
2018-Jun-21 09:59N 39°18' E 001°45'1021.4
2018-Jun-21 09:30N 39°08' E 001°43'1020.5
2018-Jun-21 09:00N 38°58' E 001°39'1019.4
2018-Jun-21 08:29N 38°54' E 001°27'0 0.7
2018-Jun-21 07:59N 38°54' E 001°27'0 0.0
2018-Jun-21 07:30N 38°54' E 001°27'0 0.0
2018-Jun-21 07:00N 38°54' E 001°27'0 0.0
2018-Jun-21 06:28N 38°54' E 001°27'0 0.0
2018-Jun-21 06:00N 38°54' E 001°27'0 0.0
2018-Jun-21 05:30N 38°54' E 001°27'0 0.0
2018-Jun-21 05:00N 38°54' E 001°27'0 0.5
2018-Jun-21 04:30N 38°54' E 001°27'3 6.3
2018-Jun-21 04:00N 38°54' E 001°31'1020.0
2018-Jun-21 03:30N 39°00' E 001°41'1421.1
2018-Jun-21 02:50N 39°14' E 001°44'1121.4
2018-Jun-21 02:20N 39°25' E 001°46'921.7
2018-Jun-21 01:56N 39°33' E 001°48'1021.7
2018-Jun-21 01:29N 39°43' E 001°50'1121.2
2018-Jun-21 00:58N 39°54' E 001°52'1020.8
2018-Jun-21 00:30N 40°03' E 001°54'1120.7
2018-Jun-20 23:58N 40°14' E 001°57'1020.8
2018-Jun-20 23:30N 40°24' E 001°59'1021.0
2018-Jun-20 23:00N 40°34' E 002°01'1021.1
2018-Jun-20 22:30N 40°45' E 002°03'1121.3
2018-Jun-20 22:00N 40°55' E 002°05'1121.4
2018-Jun-20 21:30N 41°06' E 002°08'1121.2
2018-Jun-20 21:00N 41°16' E 002°10'5 9.3
2018-Jun-20 20:31N 41°21' E 002°10'0 0.9
2018-Jun-20 20:00N 41°21' E 002°09'0 0.0
2018-Jun-20 19:30N 41°21' E 002°09'0 0.0
2018-Jun-20 19:00N 41°21' E 002°09'0 0.0
2018-Jun-20 18:29N 41°21' E 002°09'0 0.0
2018-Jun-20 18:00N 41°21' E 002°09'0 0.0
2018-Jun-20 17:30N 41°21' E 002°09'0 0.0
2018-Jun-20 17:00N 41°21' E 002°09'0 0.6
2018-Jun-20 16:30N 41°21' E 002°10'4 8.8
2018-Jun-20 16:00N 41°16' E 002°11'1121.4
2018-Jun-20 15:30N 41°06' E 002°09'1120.7
2018-Jun-20 15:00N 40°56' E 002°06'1021.3
2018-Jun-20 14:30N 40°45' E 002°04'1121.1
2018-Jun-20 14:00N 40°35' E 002°02'1021.0
2018-Jun-20 13:30N 40°25' E 001°60'1220.9
2018-Jun-20 12:56N 40°13' E 001°57'6617.6
2018-Jun-20 09:10N 39°07' E 001°42'620.9
2018-Jun-20 08:51N 39°01' E 001°41'1317.8
2018-Jun-20 08:08N 38°54' E 001°27'0 0.7
2018-Jun-20 07:57N 38°54' E 001°27'0 0.0
2018-Jun-20 07:27N 38°54' E 001°27'0 0.0
2018-Jun-20 06:47N 38°54' E 001°27'0 0.0
2018-Jun-20 06:16N 38°54' E 001°27'0 0.0
2018-Jun-20 05:57N 38°54' E 001°27'0 0.0
2018-Jun-20 05:31N 38°54' E 001°27'0 0.0
2018-Jun-20 05:00N 38°54' E 001°27'0 0.0
2018-Jun-20 04:26N 38°54' E 001°27'1 1.9
2018-Jun-20 03:55N 38°54' E 001°28'9120.2
2018-Jun-19 23:25N 40°22' E 001°58'921.9
2018-Jun-19 23:00N 40°30' E 002°01'1121.9
2018-Jun-19 22:30N 40°41' E 002°03'1422.1
2018-Jun-19 21:53N 40°55' E 002°05'821.9
2018-Jun-19 21:30N 41°03' E 002°07'1121.7
2018-Jun-19 21:00N 41°14' E 002°10'713.8
2018-Jun-19 20:30N 41°21' E 002°09'0 0.4
2018-Jun-19 20:00N 41°21' E 002°09'0 0.0
2018-Jun-19 19:30N 41°21' E 002°09'0 0.0
2018-Jun-19 19:00N 41°21' E 002°09'0 0.0
2018-Jun-19 18:30N 41°21' E 002°09'0 0.0
2018-Jun-19 18:00N 41°21' E 002°09'0 0.0
2018-Jun-19 17:30N 41°21' E 002°09'0 0.0
2018-Jun-19 17:00N 41°21' E 002°09'0 0.0
2018-Jun-19 16:30N 41°21' E 002°09'2 4.0
2018-Jun-19 16:00N 41°19' E 002°10'816.4
2018-Jun-19 15:30N 41°11' E 002°10'1121.1
2018-Jun-19 15:00N 41°00' E 002°07'1020.7
2018-Jun-19 14:30N 40°50' E 002°05'1020.7
2018-Jun-19 14:00N 40°40' E 002°03'10219.2
2018-Jun-19 08:41N 38°59' E 001°40'421.0
2018-Jun-19 08:29N 38°57' E 001°36'713.5
2018-Jun-19 07:58N 38°54' E 001°27'0 0.0
2018-Jun-19 07:28N 38°54' E 001°27'0 0.0
2018-Jun-19 07:00N 38°54' E 001°27'0 0.0
2018-Jun-19 06:30N 38°54' E 001°27'0 0.0
2018-Jun-19 06:00N 38°54' E 001°27'0 0.0
2018-Jun-19 05:28N 38°54' E 001°27'0 0.0
2018-Jun-19 04:59N 38°54' E 001°27'0 0.0
2018-Jun-19 04:27N 38°54' E 001°27'1 2.0
2018-Jun-19 03:56N 38°54' E 001°28'919.3
2018-Jun-19 03:29N 38°58' E 001°38'8019.7
2018-Jun-18 23:24N 40°17' E 001°58'820.6
2018-Jun-18 23:00N 40°25' E 001°60'1020.7
2018-Jun-18 22:30N 40°35' E 002°02'1020.8
2018-Jun-18 22:00N 40°45' E 002°04'1020.6
2018-Jun-18 21:30N 40°56' E 002°06'1020.5
2018-Jun-18 21:01N 41°06' E 002°08'1020.2
2018-Jun-18 20:31N 41°16' E 002°10'510.2
2018-Jun-18 20:01N 41°21' E 002°10'0 0.0
2018-Jun-18 19:31N 41°21' E 002°10'0 0.0
2018-Jun-18 19:01N 41°21' E 002°10'0 0.0
2018-Jun-18 18:31N 41°21' E 002°10'0 0.0
2018-Jun-18 18:01N 41°21' E 002°10'0 0.0
2018-Jun-18 17:30N 41°21' E 002°10'0 0.0
2018-Jun-18 17:01N 41°21' E 002°10'0 0.0
2018-Jun-18 16:31N 41°21' E 002°10'0 0.0
2018-Jun-18 16:01N 41°21' E 002°10'0 0.0
2018-Jun-18 15:31N 41°21' E 002°10'0 0.0
2018-Jun-18 15:01N 41°21' E 002°10'0 0.0
2018-Jun-18 14:31N 41°21' E 002°10'0 0.0
2018-Jun-18 14:01N 41°21' E 002°10'0 0.0
2018-Jun-18 13:31N 41°21' E 002°10'0 0.0
2018-Jun-18 13:01N 41°21' E 002°10'0 0.0
2018-Jun-18 12:30N 41°21' E 002°10'0 0.0
2018-Jun-18 12:01N 41°21' E 002°10'0 0.0
2018-Jun-18 11:31N 41°21' E 002°10'0 0.0
2018-Jun-18 11:00N 41°21' E 002°10'0 0.0
2018-Jun-18 10:30N 41°21' E 002°10'0 0.0
2018-Jun-18 10:00N 41°21' E 002°10'0 0.0
2018-Jun-18 09:30N 41°21' E 002°10'0 0.0
2018-Jun-18 09:00N 41°21' E 002°10'0 0.0
2018-Jun-18 08:30N 41°21' E 002°10'0 0.0
2018-Jun-18 08:01N 41°21' E 002°10'0 0.0
2018-Jun-18 07:30N 41°21' E 002°10'0 0.0
2018-Jun-18 07:01N 41°21' E 002°10'0 0.0
2018-Jun-18 06:31N 41°21' E 002°10'0 0.0
2018-Jun-18 06:00N 41°21' E 002°10'0 0.0
2018-Jun-18 05:31N 41°21' E 002°10'0 0.0
2018-Jun-18 05:01N 41°21' E 002°10'2 3.5
2018-Jun-18 04:30N 41°19' E 002°10'4 8.4
2018-Jun-18 04:01N 41°15' E 002°11'1019.2
2018-Jun-18 03:30N 41°05' E 002°09'3020.0
2018-Jun-18 02:00N 40°36' E 002°02'6119.9
2018-Jun-17 22:56N 39°35' E 001°49'819.0
2018-Jun-17 22:30N 39°28' E 001°47'3219.3
2018-Jun-17 20:52N 38°57' E 001°36'817.7
2018-Jun-17 20:26N 38°54' E 001°27'0 0.6
2018-Jun-17 19:59N 38°54' E 001°27'0 0.0
2018-Jun-17 19:30N 38°54' E 001°27'0 0.0
2018-Jun-17 19:00N 38°54' E 001°27'0 0.0
2018-Jun-17 18:29N 38°54' E 001°27'0 0.0
2018-Jun-17 18:00N 38°54' E 001°27'0 0.0
2018-Jun-17 17:30N 38°54' E 001°27'0 0.0
2018-Jun-17 17:00N 38°54' E 001°27'0 0.0
2018-Jun-17 16:30N 38°54' E 001°27'0 0.0
2018-Jun-17 16:00N 38°54' E 001°27'0 0.0
2018-Jun-17 15:29N 38°54' E 001°27'0 0.0
2018-Jun-17 15:00N 38°54' E 001°27'0 0.0
2018-Jun-17 14:30N 38°54' E 001°27'0 0.0
2018-Jun-17 13:59N 38°54' E 001°27'0 0.0
2018-Jun-17 10:26N 38°54' E 001°27'0 0.0
2018-Jun-17 09:57N 38°54' E 001°27'0 0.0
2018-Jun-17 09:27N 38°54' E 001°27'0 0.0
2018-Jun-17 09:00N 38°54' E 001°27'0 0.0
2018-Jun-17 08:30N 38°54' E 001°27'0 0.0
2018-Jun-17 08:00N 38°54' E 001°27'0 0.0
2018-Jun-17 07:30N 38°54' E 001°27'0 0.0
2018-Jun-17 07:00N 38°54' E 001°27'0 0.0
2018-Jun-17 06:30N 38°54' E 001°27'0 0.0
2018-Jun-17 06:00N 38°54' E 001°27'0 0.0
2018-Jun-17 05:30N 38°54' E 001°27'0 0.0
2018-Jun-17 05:00N 38°54' E 001°27'0 0.0
2018-Jun-17 04:30N 38°54' E 001°27'0 0.0
2018-Jun-17 04:00N 38°54' E 001°27'0 0.0
2018-Jun-17 03:30N 38°54' E 001°27'0 0.0
2018-Jun-17 02:59N 38°54' E 001°27'0 0.0
2018-Jun-17 02:30N 38°54' E 001°27'0 0.0
2018-Jun-17 02:00N 38°54' E 001°27'0 0.0
2018-Jun-17 01:29N 38°54' E 001°27'0 0.0
2018-Jun-17 01:00N 38°54' E 001°27'0 0.0
2018-Jun-17 00:30N 38°54' E 001°27'0 0.0
2018-Jun-16 23:59N 38°54' E 001°27'0 0.0
2018-Jun-16 23:30N 38°54' E 001°27'0 0.0
2018-Jun-16 23:00N 38°54' E 001°27'0 0.0
2018-Jun-16 22:29N 38°54' E 001°27'0 0.0
2018-Jun-16 21:35N 38°54' E 001°27'0 0.0
2018-Jun-16 21:30N 38°54' E 001°27'0 0.0
2018-Jun-16 21:00N 38°54' E 001°27'0 0.0
2018-Jun-16 20:29N 38°54' E 001°27'0 0.0
2018-Jun-16 19:58N 38°54' E 001°27'0 0.0
2018-Jun-16 19:30N 38°54' E 001°27'0 0.0
2018-Jun-16 19:00N 38°54' E 001°27'0 0.0
2018-Jun-16 18:30N 38°54' E 001°27'0 0.0
2018-Jun-16 18:00N 38°54' E 001°27'0 0.0
2018-Jun-16 17:28N 38°54' E 001°27'0 0.0
2018-Jun-16 17:00N 38°54' E 001°27'0 0.0
2018-Jun-16 16:30N 38°54' E 001°27'0 0.0
2018-Jun-16 16:00N 38°54' E 001°27'0 0.0
2018-Jun-16 15:30N 38°54' E 001°27'0 0.0
2018-Jun-16 15:00N 38°54' E 001°27'0 0.0
2018-Jun-16 14:25N 38°54' E 001°27'0 0.0
2018-Jun-16 14:00N 38°54' E 001°27'0 0.0
2018-Jun-16 13:30N 38°54' E 001°27'0 0.0
2018-Jun-16 12:59N 38°54' E 001°27'0 0.0
2018-Jun-16 12:30N 38°54' E 001°27'0 0.0
2018-Jun-16 11:59N 38°54' E 001°27'0 0.0
2018-Jun-16 11:30N 38°54' E 001°27'0 0.0
2018-Jun-16 11:00N 38°54' E 001°27'0 0.0
2018-Jun-16 10:30N 38°54' E 001°27'0 0.0
2018-Jun-16 10:00N 38°54' E 001°27'0 0.0
2018-Jun-16 09:30N 38°54' E 001°27'0 0.0
2018-Jun-16 09:00N 38°54' E 001°27'0 0.0
2018-Jun-16 08:30N 38°54' E 001°27'0 0.0
2018-Jun-16 07:59N 38°54' E 001°27'0 0.0
2018-Jun-16 07:30N 38°54' E 001°27'0 0.0
2018-Jun-16 06:59N 38°54' E 001°27'0 0.0
2018-Jun-16 06:30N 38°54' E 001°27'0 0.0
2018-Jun-16 06:00N 38°54' E 001°27'0 0.0
2018-Jun-16 05:30N 38°54' E 001°27'0 0.0
2018-Jun-16 05:00N 38°54' E 001°27'0 0.0
2018-Jun-16 04:30N 38°54' E 001°27'1 1.4
2018-Jun-16 04:00N 38°54' E 001°27'1019.8
2018-Jun-16 03:30N 38°59' E 001°38'1120.0
2018-Jun-16 02:58N 39°09' E 001°43'1020.9
2018-Jun-16 02:30N 39°18' E 001°44'1020.6
2018-Jun-16 02:00N 39°29' E 001°47'1121.0
2018-Jun-16 01:30N 39°39' E 001°49'5920.7
2018-Jun-15 22:37N 40°38' E 001°59'720.8
2018-Jun-15 22:16N 40°45' E 002°01'720.9
2018-Jun-15 21:55N 40°53' E 002°03'921.3
2018-Jun-15 21:30N 41°01' E 002°06'1020.8
2018-Jun-15 21:00N 41°11' E 002°09'918.3
2018-Jun-15 20:31N 41°20' E 002°10'1 1.5
2018-Jun-15 20:01N 41°21' E 002°09'0 0.0
2018-Jun-15 19:30N 41°21' E 002°09'0 0.0
2018-Jun-15 19:00N 41°21' E 002°09'0 0.0
2018-Jun-15 18:31N 41°21' E 002°09'0 0.0
2018-Jun-15 17:59N 41°21' E 002°09'0 0.0
2018-Jun-15 17:31N 41°21' E 002°09'0 0.0
2018-Jun-15 17:01N 41°21' E 002°09'0 0.0
2018-Jun-15 16:31N 41°21' E 002°09'0 0.2
2018-Jun-15 16:01N 41°20' E 002°09'4 7.0
2018-Jun-15 15:30N 41°17' E 002°11'1020.4
2018-Jun-15 15:00N 41°07' E 002°09'1020.2
2018-Jun-15 14:30N 40°57' E 002°07'1020.0
2018-Jun-15 14:00N 40°47' E 002°05'1120.2
2018-Jun-15 13:28N 40°37' E 002°02'1020.6
2018-Jun-15 13:00N 40°27' E 001°60'5120.1
2018-Jun-15 10:27N 39°36' E 001°49'920.7
2018-Jun-15 10:00N 39°27' E 001°47'1121.9
2018-Jun-15 09:29N 39°16' E 001°45'1422.3
2018-Jun-15 08:52N 39°02' E 001°42'14 4.9
2018-Jun-15 06:01N 38°54' E 001°27'0 0.1
2018-Jun-15 06:00N 38°54' E 001°27'0 0.0
2018-Jun-15 05:30N 38°54' E 001°27'0 0.0
2018-Jun-15 05:00N 38°54' E 001°27'0 0.0
2018-Jun-15 04:30N 38°54' E 001°27'1 1.4
2018-Jun-15 04:00N 38°54' E 001°28'9718.8
2018-Jun-14 22:52N 40°27' E 002°00'720.1
2018-Jun-14 22:30N 40°34' E 002°01'1319.8
2018-Jun-14 21:49N 40°48' E 002°04'820.1
2018-Jun-14 21:26N 40°55' E 002°05'920.0
2018-Jun-14 20:59N 41°04' E 002°07'919.5
2018-Jun-14 20:30N 41°14' E 002°10'714.7
2018-Jun-14 20:01N 41°21' E 002°10'0 0.1
2018-Jun-14 19:31N 41°21' E 002°10'0 0.0
2018-Jun-14 19:01N 41°21' E 002°10'0 0.0
2018-Jun-14 18:30N 41°21' E 002°10'0 0.0
2018-Jun-14 18:01N 41°21' E 002°10'0 0.0
2018-Jun-14 17:30N 41°21' E 002°10'0 0.0
2018-Jun-14 17:01N 41°21' E 002°10'0 0.0
2018-Jun-14 16:31N 41°21' E 002°10'2 4.4
2018-Jun-14 16:00N 41°19' E 002°10'713.0
2018-Jun-14 15:30N 41°12' E 002°10'1020.8
2018-Jun-14 15:00N 41°02' E 002°08'11919.7
2018-Jun-14 08:58N 39°04' E 001°42'918.4
2018-Jun-14 08:30N 38°57' E 001°36'814.1
2018-Jun-14 07:57N 38°54' E 001°27'0 0.0
2018-Jun-14 07:30N 38°54' E 001°27'0 0.0
2018-Jun-14 06:57N 38°54' E 001°27'0 0.0
2018-Jun-14 06:30N 38°54' E 001°27'0 0.0
2018-Jun-14 04:15N 38°54' E 001°27'1 3.0
2018-Jun-14 03:59N 38°54' E 001°28'918.0
2018-Jun-14 03:30N 38°58' E 001°37'10720.4
2018-Jun-13 22:16N 40°43' E 002°02'620.7
2018-Jun-13 22:00N 40°48' E 002°03'1020.5
2018-Jun-13 21:30N 40°58' E 002°04'1020.2
2018-Jun-13 21:00N 41°08' E 002°07'1020.1
2018-Jun-13 20:30N 41°18' E 002°10'3 5.7
2018-Jun-13 20:00N 41°21' E 002°09'0 0.0
2018-Jun-13 19:30N 41°21' E 002°09'0 0.0
2018-Jun-13 19:00N 41°21' E 002°09'0 0.0
2018-Jun-13 18:30N 41°21' E 002°09'0 0.0
2018-Jun-13 18:00N 41°21' E 002°09'0 0.0
2018-Jun-13 17:30N 41°21' E 002°09'0 0.0
2018-Jun-13 17:00N 41°21' E 002°09'0 0.0
2018-Jun-13 16:30N 41°21' E 002°09'1 1.5
2018-Jun-13 16:00N 41°20' E 002°10'713.1
2018-Jun-13 15:30N 41°14' E 002°11'1020.7
2018-Jun-13 15:00N 41°03' E 002°08'1020.4
2018-Jun-13 14:30N 40°53' E 002°06'  

Dump ship's entire track history